Llanbrynmair, United Kingdom
Current Conditions -  °F | °C
As of 3:50 PM on Thursday 30 Oct 2014 (Local Time) from EGOS Reporting Station
Broken Clouds Broken Clouds  
Wind Chill: 17°   Ceiling: 4500
Heat Index: 17°   Visibility: 6mi
Dew Point: 14°   Wind: 7mph
Humidity: 82%   Direction: 160°SSE
Pressure: 29.97"   Gusts: NA
Location:  52.61°N, 3.63°W
Report Text: EGOS 301550Z 16006KT 9999 FEW032 BKN045 17/14 Q1015 BLU NOSIG
Loading
Personal Weather Stations






























Interactive Weather Map
Tropical Storm Tracking
New forecast layout! Learn more

10-Day Weather Forecast

Advertisements
Track Severe Weather on mobile